createdAt,value
2019-01-29T00:00:47.745Z,99131.04
2019-01-29T00:03:19.076Z,99139.81
2019-01-29T00:05:47.668Z,99137.88
2019-01-29T00:08:16.350Z,99144.41
2019-01-29T00:10:44.959Z,99147.52
2019-01-29T00:13:13.562Z,99140.56
2019-01-29T00:15:44.882Z,99155.72
2019-01-29T00:18:13.539Z,99153.64
2019-01-29T00:20:44.905Z,99163.45
2019-01-29T00:23:16.537Z,99161.48
2019-01-29T00:25:45.463Z,99166.17
2019-01-29T00:28:14.140Z,99167.00
2019-01-29T00:30:45.716Z,99173.87
2019-01-29T00:33:17.095Z,99178.70
2019-01-29T00:35:48.670Z,99185.27
2019-01-29T00:38:17.382Z,99179.55
2019-01-29T00:40:45.988Z,99187.78
2019-01-29T00:43:14.541Z,99197.03
2019-01-29T00:45:43.132Z,99194.86
2019-01-29T00:48:14.650Z,99196.50
2019-01-29T00:50:46.278Z,99204.53
2019-01-29T00:53:17.547Z,99195.91
2019-01-29T00:55:46.568Z,99205.66
2019-01-29T00:58:15.177Z,99202.32
2019-01-29T01:00:43.771Z,99212.61
2019-01-29T01:03:15.229Z,99217.96
2019-01-29T01:05:43.886Z,99220.29
2019-01-29T01:08:12.432Z,99230.50
2019-01-29T01:10:41.095Z,99238.34
2019-01-29T01:13:12.784Z,99231.30
2019-01-29T01:15:44.014Z,99238.73
2019-01-29T01:18:15.596Z,99238.20
2019-01-29T01:20:47.280Z,99251.32
2019-01-29T01:23:15.939Z,99256.38
2019-01-29T01:25:44.602Z,99255.90
2019-01-29T01:28:13.220Z,99268.64
2019-01-29T01:30:47.633Z,99272.47
2019-01-29T01:33:16.275Z,99276.09
2019-01-29T01:35:48.190Z,99275.83
2019-01-29T01:38:16.772Z,99280.70
2019-01-29T01:40:45.363Z,99278.92
2019-01-29T01:43:13.949Z,99281.17
2019-01-29T01:45:42.590Z,99283.27
2019-01-29T01:48:14.382Z,99289.50
2019-01-29T01:50:45.831Z,99286.64
2019-01-29T01:53:14.583Z,99290.80
2019-01-29T01:55:43.184Z,99295.33
2019-01-29T01:58:14.898Z,99300.41
2019-01-29T02:00:46.223Z,99300.23
2019-01-29T02:03:14.888Z,99303.42
2019-01-29T02:05:46.411Z,99305.94
2019-01-29T02:08:15.010Z,99302.27
2019-01-29T02:10:43.666Z,99319.91
2019-01-29T02:13:15.342Z,99317.90
2019-01-29T02:15:46.890Z,99323.03
2019-01-29T02:18:15.547Z,99328.16
2019-01-29T02:20:46.800Z,99330.24
2019-01-29T02:23:18.312Z,99332.47
2019-01-29T02:25:46.902Z,99340.02
2019-01-29T02:28:15.495Z,99349.97
2019-01-29T02:30:47.074Z,99353.42
2019-01-29T02:33:18.587Z,99357.88
2019-01-29T02:35:47.250Z,99358.22
2019-01-29T02:38:15.844Z,99359.73
2019-01-29T02:40:44.382Z,99369.05
2019-01-29T02:43:12.986Z,99372.94
2019-01-29T02:45:43.495Z,99381.34
2019-01-29T02:48:14.827Z,99382.26
2019-01-29T02:50:46.188Z,99392.22
2019-01-29T02:53:18.472Z,99395.19
2019-01-29T02:55:45.041Z,99392.94
2019-01-29T02:58:13.675Z,99404.81
2019-01-29T03:00:42.185Z,99404.36
2019-01-29T03:03:12.575Z,99409.93
2019-01-29T03:05:44.110Z,99411.88
2019-01-29T03:08:12.671Z,99422.65
2019-01-29T03:10:42.815Z,99419.90
2019-01-29T03:13:14.074Z,99421.09
2019-01-29T03:15:42.764Z,99431.06
2019-01-29T03:18:11.386Z,99426.82
2019-01-29T03:20:39.998Z,99435.75
2019-01-29T03:23:10.517Z,99447.17
2019-01-29T03:25:39.195Z,99450.80
2019-01-29T03:28:07.775Z,99450.40
2019-01-29T03:30:36.335Z,99457.64
2019-01-29T03:33:05.819Z,99461.83
2019-01-29T03:35:34.427Z,99470.17
2019-01-29T03:38:03.053Z,99482.79
2019-01-29T03:40:31.766Z,99484.84
2019-01-29T03:43:00.318Z,99495.25
2019-01-29T03:45:31.890Z,99495.41
2019-01-29T03:48:03.381Z,99518.27
2019-01-29T03:50:34.755Z,99511.03
2019-01-29T03:53:03.658Z,99514.32
2019-01-29T03:55:32.332Z,99517.73
2019-01-29T03:58:00.951Z,99525.91
2019-01-29T04:00:29.875Z,99519.45
2019-01-29T04:02:58.883Z,99526.00
2019-01-29T04:05:30.667Z,99529.78
2019-01-29T04:08:01.982Z,99540.23
2019-01-29T04:10:33.436Z,99537.66
2019-01-29T04:13:02.060Z,99540.27
2019-01-29T04:15:30.654Z,99547.55
2019-01-29T04:17:59.783Z,99551.30
2019-01-29T04:20:29.170Z,99558.94
2019-01-29T04:22:57.749Z,99558.64
2019-01-29T04:25:26.410Z,99564.50
2019-01-29T04:27:55.020Z,99567.69
2019-01-29T04:30:24.138Z,99573.38
2019-01-29T04:32:53.169Z,99579.34
2019-01-29T04:35:24.452Z,99584.77
2019-01-29T04:37:53.070Z,99590.14
2019-01-29T04:40:21.625Z,99593.16
2019-01-29T04:42:50.216Z,99595.23
2019-01-29T04:45:19.440Z,99599.87
2019-01-29T04:47:48.152Z,99604.45
2019-01-29T04:50:21.182Z,99602.34
2019-01-29T04:52:52.764Z,99604.98
2019-01-29T04:55:21.891Z,99611.55
2019-01-29T04:57:50.530Z,99607.75
2019-01-29T05:00:24.463Z,99608.99
2019-01-29T05:02:53.025Z,99617.27
2019-01-29T05:05:22.047Z,99621.38
2019-01-29T05:07:50.979Z,99624.66
2019-01-29T05:10:21.218Z,99623.11
2019-01-29T05:12:49.940Z,99630.03
2019-01-29T05:15:19.919Z,99623.66
2019-01-29T05:18:07.872Z,99633.86
2019-01-29T05:20:36.419Z,99639.02
2019-01-29T05:23:05.165Z,99643.63
2019-01-29T05:25:33.722Z,99640.74
2019-01-29T05:28:05.307Z,99656.09
2019-01-29T05:30:33.964Z,99658.77
2019-01-29T05:33:02.556Z,99666.01
2019-01-29T05:35:33.953Z,99663.41
2019-01-29T05:38:04.137Z,99669.95
2019-01-29T05:40:32.920Z,99668.64
2019-01-29T05:43:01.602Z,99673.83
2019-01-29T05:45:30.215Z,99676.75
2019-01-29T05:48:01.488Z,99676.87
2019-01-29T05:50:33.063Z,99690.53
2019-01-29T05:53:01.672Z,99695.32
2019-01-29T05:55:30.292Z,99695.72
2019-01-29T05:58:01.594Z,99697.38
2019-01-29T06:00:34.800Z,99704.27
2019-01-29T06:03:03.392Z,99707.94
2019-01-29T06:05:32.024Z,99710.70
2019-01-29T06:08:00.625Z,99713.73
2019-01-29T06:10:29.184Z,99717.33
2019-01-29T06:12:58.056Z,99718.61
2019-01-29T06:15:26.765Z,99718.73
2019-01-29T06:17:55.370Z,99722.53
2019-01-29T06:20:31.474Z,99732.39
2019-01-29T06:23:06.932Z,99728.27
2019-01-29T06:25:35.577Z,99733.87
2019-01-29T06:28:07.267Z,99747.94
2019-01-29T06:30:35.880Z,99748.00
2019-01-29T06:33:04.669Z,99750.55
2019-01-29T06:35:33.259Z,99759.20
2019-01-29T06:38:01.853Z,99765.62
2019-01-29T06:40:30.521Z,99765.28
2019-01-29T06:43:01.847Z,99778.08
2019-01-29T06:45:33.514Z,99780.31
2019-01-29T06:48:02.104Z,99791.84
2019-01-29T06:50:33.459Z,99795.29
2019-01-29T06:53:02.110Z,99803.80
2019-01-29T06:55:30.726Z,99804.69
2019-01-29T06:58:02.378Z,99807.72
2019-01-29T07:00:32.815Z,99810.70
2019-01-29T07:03:02.071Z,99830.63
2019-01-29T07:05:33.768Z,99830.23
2019-01-29T07:08:05.347Z,99832.33
2019-01-29T07:10:33.967Z,99839.58
2019-01-29T07:13:02.688Z,99842.53
2019-01-29T07:18:59.816Z,99861.30
2019-01-29T07:21:28.480Z,99860.37
2019-01-29T07:23:59.667Z,99862.59
2019-01-29T07:26:29.618Z,99865.94
2019-01-29T07:28:58.221Z,99866.30
2019-01-29T07:31:26.835Z,99886.70
2019-01-29T07:33:55.446Z,99881.55
2019-01-29T07:36:24.053Z,99875.05
2019-01-29T07:38:53.029Z,99875.94
2019-01-29T07:41:22.444Z,99892.84
2019-01-29T07:43:51.031Z,99897.88
2019-01-29T07:46:23.855Z,99898.72
2019-01-29T07:48:52.553Z,99897.88
2019-01-29T07:51:23.239Z,99896.58
2019-01-29T07:53:51.919Z,99903.25
2019-01-29T07:56:35.248Z,99893.44
2019-01-29T07:59:32.375Z,99904.89
2019-01-29T08:01:59.313Z,99918.06
2019-01-29T08:04:30.821Z,99916.27
2019-01-29T08:06:59.525Z,99916.61
2019-01-29T08:09:56.891Z,99916.58
2019-01-29T08:12:30.196Z,99918.67
2019-01-29T08:15:12.041Z,99926.41
2019-01-29T08:17:42.425Z,99925.32
2019-01-29T08:20:24.536Z,99925.12
2019-01-29T08:22:58.705Z,99918.66
2019-01-29T08:25:31.559Z,99919.53
2019-01-29T08:28:22.402Z,99922.88
2019-01-29T08:30:48.828Z,99933.90
2019-01-29T08:33:17.591Z,99933.34
2019-01-29T08:35:52.380Z,99929.59
2019-01-29T08:38:35.359Z,99935.43
2019-01-29T08:41:14.331Z,99931.21
2019-01-29T08:43:53.026Z,99927.34
2019-01-29T08:46:23.362Z,99933.58
2019-01-29T08:48:52.308Z,99937.39
2019-01-29T08:51:24.186Z,99938.91
2019-01-29T08:53:53.205Z,99941.03
2019-01-29T08:56:21.914Z,99947.20
2019-01-29T08:58:53.497Z,99954.89
2019-01-29T09:01:22.738Z,99963.61
2019-01-29T09:03:51.461Z,99969.72
2019-01-29T09:06:20.009Z,99961.59
2019-01-29T09:08:48.685Z,99965.75
2019-01-29T09:11:17.432Z,99971.52
2019-01-29T09:13:46.070Z,99973.13
2019-01-29T09:16:14.836Z,99974.25
2019-01-29T09:18:43.443Z,99982.17
2019-01-29T09:21:12.062Z,99982.50
2019-01-29T09:23:43.633Z,99990.16
2019-01-29T09:26:12.354Z,99987.23
2019-01-29T09:28:42.423Z,99989.88
2019-01-29T09:31:12.550Z,99976.21
2019-01-29T09:33:44.118Z,99978.92
2019-01-29T09:36:15.855Z,99989.27
2019-01-29T09:38:44.402Z,99986.78
2019-01-29T09:41:13.058Z,99986.98
2019-01-29T09:43:43.318Z,99994.84
2019-01-29T09:46:14.910Z,99986.39
2019-01-29T09:48:46.441Z,99999.44
2019-01-29T09:51:15.034Z,99997.09
2019-01-29T09:53:43.815Z,99991.05
2019-01-29T09:56:12.521Z,99992.30
2019-01-29T09:58:43.897Z,100000.31
2019-01-29T10:01:12.507Z,100002.07
2019-01-29T10:03:44.407Z,100002.19
2019-01-29T10:06:13.031Z,99998.84
2019-01-29T10:08:45.832Z,100006.47
2019-01-29T10:11:17.294Z,100011.00
2019-01-29T10:13:48.891Z,100014.73
2019-01-29T10:16:17.497Z,100006.74
2019-01-29T10:18:48.873Z,100009.84
2019-01-29T10:21:17.986Z,100000.36
2019-01-29T10:23:46.620Z,100001.84
2019-01-29T10:26:15.168Z,100007.55
2019-01-29T10:28:47.022Z,100004.23
2019-01-29T10:31:15.730Z,100005.52
2019-01-29T10:33:47.117Z,100011.80
2019-01-29T10:36:15.933Z,100011.31
2019-01-29T10:38:44.653Z,100005.91
2019-01-29T10:41:13.270Z,100007.46
2019-01-29T10:43:44.862Z,100010.39
2019-01-29T10:46:13.571Z,100005.61
2019-01-29T10:48:42.208Z,100002.69
2019-01-29T10:51:12.460Z,100003.92
2019-01-29T10:53:43.784Z,100001.26
2019-01-29T10:56:12.554Z,100009.11
2019-01-29T10:58:44.219Z,100008.53
2019-01-29T11:01:12.890Z,100005.78
2019-01-29T11:03:43.449Z,100005.92
2019-01-29T11:06:12.077Z,100004.09
2019-01-29T11:08:43.649Z,100004.21
2019-01-29T11:11:14.999Z,100004.78
2019-01-29T11:13:43.684Z,100001.94
2019-01-29T11:16:12.292Z,100005.22
2019-01-29T11:18:43.936Z,100003.09
2019-01-29T11:21:15.245Z,100001.37
2019-01-29T11:23:43.858Z,100003.25
2019-01-29T11:26:12.568Z,99997.27
2019-01-29T11:28:44.041Z,100000.20
2019-01-29T11:31:12.656Z,99994.02
2019-01-29T11:33:43.927Z,99994.72
2019-01-29T11:36:15.462Z,100000.56
2019-01-29T11:38:46.670Z,100000.48
2019-01-29T11:41:15.697Z,99994.67
2019-01-29T11:43:47.686Z,100005.25
2019-01-29T11:46:16.497Z,100006.14
2019-01-29T11:48:45.058Z,100003.42
2019-01-29T11:51:13.719Z,100003.50
2019-01-29T11:53:45.232Z,100006.80
2019-01-29T11:56:13.827Z,100009.14
2019-01-29T11:58:45.290Z,100000.84
2019-01-29T12:01:13.955Z,100003.80
2019-01-29T12:03:45.195Z,100005.39
2019-01-29T12:06:13.795Z,100008.86
2019-01-29T12:08:42.465Z,100005.09
2019-01-29T12:11:14.001Z,100004.51
2019-01-29T12:13:45.725Z,100006.54
2019-01-29T12:16:14.457Z,100009.98
2019-01-29T12:18:45.972Z,100007.27
2019-01-29T12:21:14.576Z,100010.32
2019-01-29T12:23:43.198Z,100010.68
2019-01-29T12:26:15.094Z,100012.76
2019-01-29T12:28:43.682Z,100015.16
2019-01-29T12:31:12.274Z,100016.14
2019-01-29T12:33:42.376Z,100016.27
2019-01-29T12:36:12.458Z,100023.27
2019-01-29T12:38:44.021Z,100019.42
2019-01-29T12:41:15.401Z,100017.64
2019-01-29T12:43:46.763Z,100012.98
2019-01-29T12:46:15.370Z,100018.48
2019-01-29T12:48:46.729Z,100013.84
2019-01-29T12:51:16.908Z,100014.14
2019-01-29T12:53:45.521Z,100008.91
2019-01-29T12:56:21.534Z,100006.82
2019-01-29T12:58:47.364Z,100013.84
2019-01-29T13:01:32.351Z,100016.02
2019-01-29T13:04:01.167Z,100016.02
2019-01-29T13:06:30.187Z,100017.06
2019-01-29T13:08:59.766Z,100018.69
2019-01-29T13:11:28.428Z,100013.50
2019-01-29T13:13:57.048Z,100010.74
2019-01-29T13:16:25.752Z,100009.65
2019-01-29T13:18:54.297Z,100003.31
2019-01-29T13:21:22.890Z,100007.08
2019-01-29T13:23:51.885Z,100005.70
2019-01-29T13:26:20.496Z,100009.69
2019-01-29T13:28:49.110Z,100012.52
2019-01-29T13:31:17.909Z,100008.60
2019-01-29T13:33:46.529Z,100012.11
2019-01-29T13:36:15.138Z,100004.05
2019-01-29T13:38:43.846Z,100006.91
2019-01-29T13:41:12.535Z,100002.58
2019-01-29T13:43:44.295Z,100002.58
2019-01-29T13:46:12.964Z,100000.95
2019-01-29T13:48:44.405Z,99992.06
2019-01-29T13:51:12.945Z,99987.85
2019-01-29T13:53:43.106Z,99988.44
2019-01-29T13:56:13.359Z,99993.18
2019-01-29T13:58:47.628Z,99995.27
2019-01-29T14:01:16.284Z,99993.98
2019-01-29T14:03:44.943Z,100000.98
2019-01-29T14:06:13.475Z,99994.60
2019-01-29T14:08:45.057Z,99999.81
2019-01-29T14:11:16.586Z,100005.69
2019-01-29T14:13:45.502Z,100007.17
2019-01-29T14:16:14.112Z,100008.90
2019-01-29T14:18:45.667Z,100011.37
2019-01-29T14:21:14.402Z,100015.33
2019-01-29T14:23:42.983Z,100016.22
2019-01-29T14:26:14.604Z,100016.22
2019-01-29T14:28:45.966Z,100017.05
2019-01-29T14:31:14.675Z,100013.41
2019-01-29T14:33:46.253Z,100017.30
2019-01-29T14:36:16.729Z,100020.37
2019-01-29T14:38:51.118Z,100023.83
2019-01-29T14:41:20.326Z,100023.83
2019-01-29T14:43:49.630Z,100024.23
2019-01-29T14:46:19.566Z,100021.46
2019-01-29T14:48:48.861Z,100023.48
2019-01-29T14:51:17.786Z,100027.88
2019-01-29T14:53:49.337Z,100016.71
2019-01-29T14:56:18.514Z,100016.71
2019-01-29T14:58:48.126Z,100019.57
2019-01-29T15:01:20.507Z,100006.14
2019-01-29T15:03:52.124Z,100018.24
2019-01-29T15:06:20.840Z,100017.80
2019-01-29T15:08:49.427Z,100014.20
2019-01-29T15:11:21.243Z,100019.30
2019-01-29T15:13:49.963Z,100016.31
2019-01-29T15:16:20.330Z,100015.27
2019-01-29T15:19:05.262Z,100014.09
2019-01-29T15:21:37.998Z,100020.56
2019-01-29T15:24:07.402Z,100013.55
2019-01-29T15:26:37.414Z,100015.02
2019-01-29T15:29:06.328Z,100015.33
2019-01-29T15:31:34.940Z,100017.19
2019-01-29T15:34:03.684Z,100021.76
2019-01-29T15:36:32.606Z,100022.03
2019-01-29T15:39:01.297Z,100015.42
2019-01-29T15:41:29.909Z,100012.29
2019-01-29T15:44:01.893Z,100018.41
2019-01-29T15:46:30.501Z,100021.09
2019-01-29T15:49:02.088Z,100022.73
2019-01-29T15:51:30.642Z,100014.31
2019-01-29T15:53:59.305Z,100017.89
2019-01-29T15:56:27.851Z,100014.04
2019-01-29T15:58:56.928Z,100015.01
2019-01-29T16:01:28.187Z,100021.98
2019-01-29T16:03:56.853Z,100021.62
2019-01-29T16:06:28.803Z,100018.66
2019-01-29T16:09:00.442Z,100020.94
2019-01-29T16:11:32.061Z,100023.14
2019-01-29T16:14:04.229Z,100023.46
2019-01-29T16:16:33.555Z,100023.34
2019-01-29T16:19:05.328Z,100026.87
2019-01-29T16:21:34.341Z,100028.71
2019-01-29T16:24:02.955Z,100022.73
2019-01-29T16:26:31.537Z,100027.09
2019-01-29T16:29:00.095Z,100025.45
2019-01-29T16:31:29.014Z,100027.17
2019-01-29T16:33:57.550Z,100031.53
2019-01-29T16:36:26.148Z,100030.55
2019-01-29T16:38:58.139Z,100036.59
2019-01-29T16:41:26.738Z,100034.46
2019-01-29T16:43:58.740Z,100040.03
2019-01-29T16:46:27.289Z,100044.28
2019-01-29T16:48:58.833Z,100043.84
2019-01-29T16:51:30.416Z,100043.30
2019-01-29T16:53:59.013Z,100042.09
2019-01-29T16:56:27.738Z,100044.42
2019-01-29T16:59:01.319Z,100043.73
2019-01-29T17:01:29.873Z,100039.67
2019-01-29T17:03:58.413Z,100041.97
2019-01-29T17:06:29.762Z,100046.28
2019-01-29T17:08:58.712Z,100044.97
2019-01-29T17:11:30.052Z,100047.53
2019-01-29T17:14:01.266Z,100051.01
2019-01-29T17:16:32.921Z,100048.88
2019-01-29T17:19:04.314Z,100053.67
2019-01-29T17:21:33.274Z,100050.27
2019-01-29T17:24:04.608Z,100046.42
2019-01-29T17:26:33.266Z,100048.41
2019-01-29T17:29:05.630Z,100049.32
2019-01-29T17:31:37.133Z,100049.25
2019-01-29T17:34:08.785Z,100047.53
2019-01-29T17:36:37.640Z,100048.44
2019-01-29T17:39:07.867Z,100039.95
2019-01-29T17:41:36.578Z,100042.44
2019-01-29T17:44:05.810Z,100041.97
2019-01-29T17:46:37.619Z,100041.16
2019-01-29T17:49:09.714Z,100038.62
2019-01-29T17:51:44.137Z,100036.73
2019-01-29T17:54:15.377Z,100033.33
2019-01-29T17:56:44.261Z,100034.67
2019-01-29T17:59:12.880Z,100036.87
2019-01-29T18:01:41.556Z,100036.97
2019-01-29T18:04:10.178Z,100033.06
2019-01-29T18:06:38.846Z,100033.83
2019-01-29T18:09:11.434Z,100039.30
2019-01-29T18:11:40.035Z,100031.70
2019-01-29T18:14:10.629Z,100033.13
2019-01-29T18:16:38.857Z,100033.59
2019-01-29T18:19:07.545Z,100033.91
2019-01-29T18:21:40.264Z,100027.56
2019-01-29T18:24:08.875Z,100035.25
2019-01-29T18:26:37.417Z,100023.34
2019-01-29T18:29:06.124Z,100031.84
2019-01-29T18:31:34.636Z,100031.74
2019-01-29T18:34:06.001Z,100029.92
2019-01-29T18:36:34.604Z,100036.33
2019-01-29T18:39:05.140Z,100030.36
2019-01-29T18:41:34.236Z,100031.48
2019-01-29T18:44:02.931Z,100030.94
2019-01-29T18:46:31.520Z,100031.00
2019-01-29T18:49:00.223Z,100029.02
2019-01-29T18:51:28.791Z,100027.77
2019-01-29T18:54:00.158Z,100026.45
2019-01-29T18:56:28.758Z,100026.55
2019-01-29T18:59:00.337Z,100022.64
2019-01-29T19:01:28.899Z,100022.27
2019-01-29T19:04:00.892Z,100023.17
2019-01-29T19:06:29.808Z,100024.93
2019-01-29T19:08:58.519Z,100022.93
2019-01-29T19:11:27.137Z,100024.77
2019-01-29T19:13:55.719Z,100027.39
2019-01-29T19:16:24.365Z,100013.86
2019-01-29T19:18:54.747Z,100026.26
2019-01-29T19:21:23.427Z,100022.01
2019-01-29T19:23:52.037Z,100028.00
2019-01-29T19:26:20.603Z,100020.84
2019-01-29T19:28:49.200Z,100019.97
2019-01-29T19:31:17.868Z,100012.64
2019-01-29T19:33:49.216Z,100016.56
2019-01-29T19:36:20.618Z,100025.18
2019-01-29T19:38:49.302Z,100029.38
2019-01-29T19:41:17.894Z,100020.41
2019-01-29T19:43:46.882Z,100021.17
2019-01-29T19:46:18.659Z,100022.47
2019-01-29T19:48:47.302Z,100018.80
2019-01-29T19:51:16.029Z,100026.19
2019-01-29T19:53:44.793Z,100023.28
2019-01-29T19:56:13.482Z,100028.88
2019-01-29T19:58:45.034Z,100022.95
2019-01-29T20:01:16.714Z,100022.63
2019-01-29T20:03:45.314Z,100026.49
2019-01-29T20:06:15.448Z,100028.30
2019-01-29T20:08:44.340Z,100022.38
2019-01-29T20:11:15.824Z,100023.66
2019-01-29T20:13:45.062Z,100022.83
2019-01-29T20:16:13.740Z,100025.77
2019-01-29T20:18:42.780Z,100021.03
2019-01-29T20:21:14.102Z,100018.03
2019-01-29T20:23:42.671Z,100018.84
2019-01-29T20:26:14.146Z,100007.73
2019-01-29T20:28:45.834Z,100013.67
2019-01-29T20:31:15.072Z,100014.52
2019-01-29T20:33:46.754Z,100011.52
2019-01-29T20:36:19.820Z,100014.09
2019-01-29T20:38:48.479Z,100011.00
2019-01-29T20:41:17.303Z,100005.03
2019-01-29T20:43:46.040Z,100008.84
2019-01-29T20:46:17.418Z,100008.41
2019-01-29T20:48:46.452Z,100007.52
2019-01-29T20:51:15.095Z,100008.86
2019-01-29T20:53:46.810Z,100001.66
2019-01-29T20:56:15.437Z,100002.58
2019-01-29T20:58:52.484Z,99998.37
2019-01-29T21:01:14.425Z,99995.01
2019-01-29T21:03:45.765Z,99994.17
2019-01-29T21:06:14.413Z,99995.48
2019-01-29T21:08:45.677Z,99990.34
2019-01-29T21:11:14.308Z,99992.84
2019-01-29T21:13:43.178Z,99993.28
2019-01-29T21:16:14.724Z,99991.58
2019-01-29T21:18:43.273Z,99991.63
2019-01-29T21:21:15.209Z,99985.69
2019-01-29T21:23:43.768Z,99980.98
2019-01-29T21:26:12.815Z,99978.06
2019-01-29T21:28:41.450Z,99979.30
2019-01-29T21:31:10.214Z,99973.33
2019-01-29T21:33:45.137Z,99977.21
2019-01-29T21:36:13.825Z,99979.00
2019-01-29T21:38:42.560Z,99976.52
2019-01-29T21:41:14.329Z,99974.48
2019-01-29T21:43:45.730Z,99976.23
2019-01-29T21:46:14.538Z,99979.22
2019-01-29T21:48:43.098Z,99974.95
2019-01-29T21:51:16.219Z,99971.48
2019-01-29T21:53:44.874Z,99974.91
2019-01-29T21:56:16.426Z,99973.68
2019-01-29T21:58:45.061Z,99971.09
2019-01-29T22:01:13.677Z,99972.76
2019-01-29T22:03:44.968Z,99962.11
2019-01-29T22:06:13.583Z,99971.91
2019-01-29T22:08:42.190Z,99970.22
2019-01-29T22:11:12.373Z,99969.33
2019-01-29T22:13:42.523Z,99966.73
2019-01-29T22:16:14.093Z,99959.98
2019-01-29T22:18:42.681Z,99956.64
2019-01-29T22:21:14.497Z,99963.43
2019-01-29T22:23:43.162Z,99957.02
2019-01-29T22:26:14.482Z,99956.98
2019-01-29T22:28:43.172Z,99958.68
2019-01-29T22:31:14.776Z,99954.04
2019-01-29T22:33:43.387Z,99956.63
2019-01-29T22:36:12.036Z,99947.28
2019-01-29T22:38:43.601Z,99946.08
2019-01-29T22:41:14.995Z,99951.62
2019-01-29T22:43:43.609Z,99949.53
2019-01-29T22:46:12.227Z,99945.73
2019-01-29T22:48:42.473Z,99943.97
2019-01-29T22:51:14.269Z,99942.34
2019-01-29T22:53:42.875Z,99943.62
2019-01-29T22:56:13.033Z,99935.97
2019-01-29T22:58:42.273Z,99935.97
2019-01-29T23:01:16.491Z,99935.16
2019-01-29T23:03:45.434Z,99933.50
2019-01-29T23:06:26.103Z,99930.50
2019-01-29T23:08:54.736Z,99930.95
2019-01-29T23:11:23.374Z,99930.95
2019-01-29T23:13:52.269Z,99927.09
2019-01-29T23:16:23.723Z,99919.88
2019-01-29T23:18:52.597Z,99920.28
2019-01-29T23:21:21.265Z,99919.83
2019-01-29T23:23:52.642Z,99918.19
2019-01-29T23:26:21.352Z,99914.00
2019-01-29T23:28:52.420Z,99913.14
2019-01-29T23:31:23.417Z,99912.34
2019-01-29T23:33:52.017Z,99909.37
2019-01-29T23:36:20.623Z,99917.45
2019-01-29T23:38:52.275Z,99917.45
2019-01-29T23:41:23.510Z,99909.34
2019-01-29T23:43:54.828Z,99912.30
2019-01-29T23:46:26.403Z,99907.66
2019-01-29T23:48:55.031Z,99902.12
2019-01-29T23:51:23.603Z,99906.77
2019-01-29T23:53:52.264Z,99897.89
2019-01-29T23:56:20.884Z,99901.33
2019-01-29T23:58:49.577Z,99901.78
